Saturday, November 18, 2017, 6:54 AM EST
Back to Local

KCAR, Caribou Municipal Airport

Location: Caribou, ME, United States Lat: 46.867
Local Time: 6:54 AM EST (11:54 GMT) Lon: -68.017
Time Zone: US/Eastern Elev: 626 ft

Show me the last for .
Show Decoded

2017-11-18 05:54 METAR KCAR 181054Z AUTO 32005KT 10SM CLR M07/M11 A2981 RMK AO2 SLP106 T10671106
                 =
2017-11-18 04:54 METAR KCAR 180954Z AUTO 32009KT 10SM CLR M07/M10 A2979 RMK AO2 SLP101 T10671100
                 =
2017-11-18 03:54 METAR KCAR 180854Z AUTO 33011KT 10SM CLR M06/M10 A2977 RMK AO2 SLP093 T10611100
                 51004 =
2017-11-18 03:35 METAR KCAR 180835Z AUTO 33014G19KT 10SM SCT022 M06/M10 A2977 RMK AO2 T10611100 =
2017-11-18 02:54 METAR KCAR 180754Z AUTO 31013G20KT 10SM OVC019 M06/M09 A2977 RMK AO2 SLP093
                 T10561094 =
2017-11-18 01:54 METAR KCAR 180654Z AUTO 31011G20KT 10SM OVC018 M05/M09 A2976 RMK AO2 SLP090
                 T10501089 =
2017-11-18 00:54 METAR KCAR 180554Z AUTO 30007KT 10SM OVC017 M05/M09 A2976 RMK AO2 SLP088
                 T10501089 11033 21050 50008 =
2017-11-17 23:54 METAR KCAR 180454Z AUTO 30011KT 10SM OVC019 M04/M09 A2977 RMK AO2 SLP092
                 T10441089 400221044 =
2017-11-17 22:54 METAR KCAR 180354Z AUTO 29009G18KT 250V310 10SM OVC020 M04/M08 A2976 RMK AO2
                 SLP088 T10441083 =
2017-11-17 21:54 METAR KCAR 180254Z AUTO 31008G23KT 10SM OVC020 M04/M08 A2973 RMK AO2 SLP079
                 T10391083 51013 =
2017-11-17 20:54 METAR KCAR 180154Z AUTO 31017G25KT 10SM OVC022 M03/M08 A2973 RMK AO2 PK WND
                 31029/0122 SLP078 T10331078 =
2017-11-17 19:54 METAR KCAR 180054Z AUTO 31019G26KT 10SM OVC022 M03/M08 A2971 RMK AO2 PK WND
                 32026/0047 SLP072 T10331078 =
2017-11-17 18:54 METAR KCAR 172354Z AUTO 32016G24KT 10SM BKN022 OVC080 M03/M07 A2969 RMK AO2 PK
                 WND 30030/2323 SNE08 SLP066 P0000 60000 T10331072 10000 21033 51021 =
2017-11-17 18:08 METAR KCAR 172308Z AUTO 31015G27KT 9SM SCT021 OVC070 M03/M07 A2967 RMK AO2 PK
                 WND 31027/2255 SNE08 P0000 T10281072 =
2017-11-17 17:54 METAR KCAR 172254Z AUTO 31016G29KT 6SM -SN BKN021 BKN065 OVC075 M03/M07 A2967
                 RMK AO2 PK WND 31029/2241 UPB35E38SNB38 SLP056 P0000 T10281067 =
2017-11-17 16:54 METAR KCAR 172154Z AUTO 32012G27KT 10SM OVC017 M02/M06 A2966 RMK AO2 PK WND
                 33031/2055 SLP053 T10221061 =
2017-11-17 15:54 METAR KCAR 172054Z AUTO 32020G31KT 10SM OVC018 M02/M06 A2963 RMK AO2 PK WND
                 31032/2009 SLP043 T10171056 53027 =
2017-11-17 14:54 METAR KCAR 171954Z AUTO 31019G30KT 10SM OVC017 M01/M05 A2959 RMK AO2 PK WND
                 31034/1900 SLP031 T10111050 =
2017-11-17 13:54 METAR KCAR 171854Z AUTO 31017G30KT 10SM OVC015 M01/M04 A2956 RMK AO2 PK WND
                 31033/1839 SLP021 T10111044 =
2017-11-17 12:54 METAR KCAR 171754Z AUTO 32017G26KT 10SM OVC017 00/M03 A2955 RMK AO2 PK WND
                 31030/1733 SLP016 60010 T00001033 10017 20000 53005 =
2017-11-17 11:54 METAR KCAR 171654Z AUTO 31017G29KT 10SM BKN018 BKN022 OVC075 01/M03 A2954 RMK
                 AO2 PK WND 33034/1605 UPE1556RAB1556E12 SLP012 P0000 T00061028 =
2017-11-17 11:23 METAR KCAR 171623Z AUTO 32023G33KT 10SM SCT016 BKN022 OVC060 01/M02 A2953 RMK
                 AO2 PK WND 33034/1605 UPE1556RAB1556E12 P0000 T00111022 =
2017-11-17 11:10 METAR KCAR 171610Z AUTO 32022G34KT 10SM -RA SCT018 SCT050 OVC060 01/M02 A2953
                 RMK AO2 PK WND 33034/1605 UPE1556RAB1556 P0000 T00111022 =
2017-11-17 11:03 METAR KCAR 171603Z AUTO 32021G30KT 10SM -RA SCT016 BKN021 OVC060 01/M02 A2953
                 RMK AO2 PK WND 32030/1600 UPE1556RAB1556 P0000 T00111017 =
2017-11-17 10:54 METAR KCAR 171554Z AUTO 31019G31KT 10SM UP SCT018 BKN047 OVC065 02/M02 A2953 RMK
                 AO2 PK WND 32031/1534 UPB38SNE38 SLP009 P0000 T00171017 =
2017-11-17 10:47 METAR KCAR 171547Z AUTO 32021G31KT 10SM UP SCT014 BKN044 OVC055 01/M02 A2953 RMK
                 AO2 PK WND 32031/1534 UPB38SNE38 P0000 T00111017 =
2017-11-17 09:54 METAR KCAR 171454Z AUTO 33015G27KT 8SM -SN OVC015 02/M01 A2953 RMK AO2 PK WND
                 33027/1445 SLP010 P0002 60010 T00171006 52004 =
2017-11-17 09:51 METAR KCAR 171451Z AUTO 33017G27KT 7SM -SN BKN015 OVC022 02/M01 A2953 RMK AO2 PK
                 WND 33027/1445 P0002 =
2017-11-17 09:36 METAR KCAR 171436Z AUTO 32015G25KT 3SM -SN BR FEW009 BKN014 OVC019 02/M01 A2953
                 RMK AO2 P0002 T00171006 =
2017-11-17 09:29 METAR KCAR 171429Z AUTO 32015G25KT 2SM -SN BR FEW010 OVC015 01/M01 A2953 RMK AO2
                 P0002 T00111006 =
2017-11-17 09:25 METAR KCAR 171425Z AUTO 32016G25KT 1 1/2SM -SN BR OVC015 01/M01 A2953 RMK AO2
                 P0001 T00111006 =
2017-11-17 09:17 METAR KCAR 171417Z AUTO 32016G25KT 1SM -SN BR OVC012 01/M01 A2952 RMK AO2 P0001
                 T00111006 =
2017-11-17 09:06 METAR KCAR 171406Z AUTO 33015G24KT 3/4SM -SN BR VV012 01/M01 A2952 RMK AO2 P0001
                 T00111006 =
2017-11-17 08:54 METAR KCAR 171354Z AUTO 33015G23KT 1SM -SN BR BKN010 OVC015 01/M01 A2952 RMK AO2
                 PK WND 32026/1342 SLP005 P0003 T00111006 =
2017-11-17 08:51 METAR KCAR 171351Z AUTO 32015G26KT 1SM -SN BR BKN010 OVC015 01/M01 A2952 RMK AO2
                 PK WND 32026/1342 P0003 =
2017-11-17 08:44 METAR KCAR 171344Z AUTO 32015G26KT 1 1/4SM -SN BR SCT009 OVC015 01/M01 A2952 RMK
                 AO2 PK WND 32026/1342 P0002 T00111006 =
2017-11-17 08:16 METAR KCAR 171316Z AUTO 33017G24KT 1 1/4SM -SN BR SCT010 OVC014 01/M01 A2951 RMK
                 AO2 P0001 T00111006 =
2017-11-17 08:08 METAR KCAR 171308Z AUTO 33016G24KT 1 3/4SM -SN BR BKN009 OVC014 01/M01 A2951 RMK
                 AO2 P0000 T00111006 =
2017-11-17 07:54 METAR KCAR 171254Z AUTO 33015G25KT 1 1/2SM -SN BR SCT009 OVC014 01/M01 A2951 RMK
                 AO2 SLP002 P0005 T00111006 =
2017-11-17 07:25 METAR KCAR 171225Z AUTO 33016G24KT 1 1/4SM -SN BR SCT008 OVC014 01/M01 A2950 RMK
                 AO2 P0003 T00111006 =
2017-11-17 07:16 METAR KCAR 171216Z AUTO 33014G23KT 1 1/2SM -SN BR SCT008 OVC014 01/M01 A2950 RMK
                 AO2 P0002 T00111006 =

Support USWX by starting your Amazon purchase here.